sensor_id;sensor_type;location;lat;lon;timestamp;temperature;humidity
12907;DHT22;6521;50.498;8.474;2023-06-01T00:00:37;14.34;72.74
12907;DHT22;6521;50.498;8.474;2023-06-01T00:03:10;14.33;72.89
12907;DHT22;6521;50.498;8.474;2023-06-01T00:05:40;14.30;72.83
12907;DHT22;6521;50.498;8.474;2023-06-01T00:08:11;14.29;72.95
12907;DHT22;6521;50.498;8.474;2023-06-01T00:10:42;14.23;73.21
12907;DHT22;6521;50.498;8.474;2023-06-01T00:13:13;14.22;73.11
12907;DHT22;6521;50.498;8.474;2023-06-01T00:15:43;14.19;73.33
12907;DHT22;6521;50.498;8.474;2023-06-01T00:18:14;14.20;73.32
12907;DHT22;6521;50.498;8.474;2023-06-01T00:20:45;14.12;73.52
12907;DHT22;6521;50.498;8.474;2023-06-01T00:23:16;14.08;73.56
12907;DHT22;6521;50.498;8.474;2023-06-01T00:25:50;14.04;73.77
12907;DHT22;6521;50.498;8.474;2023-06-01T00:28:21;13.99;74.03
12907;DHT22;6521;50.498;8.474;2023-06-01T00:30:52;13.98;74.08
12907;DHT22;6521;50.498;8.474;2023-06-01T00:33:23;13.95;74.20
12907;DHT22;6521;50.498;8.474;2023-06-01T00:35:54;13.92;74.52
12907;DHT22;6521;50.498;8.474;2023-06-01T00:38:25;13.91;74.44
12907;DHT22;6521;50.498;8.474;2023-06-01T00:40:56;13.92;74.36
12907;DHT22;6521;50.498;8.474;2023-06-01T00:43:27;13.83;74.36
12907;DHT22;6521;50.498;8.474;2023-06-01T00:45:58;13.79;74.22
12907;DHT22;6521;50.498;8.474;2023-06-01T00:48:29;13.74;74.44
12907;DHT22;6521;50.498;8.474;2023-06-01T00:51:00;13.75;74.44
12907;DHT22;6521;50.498;8.474;2023-06-01T00:53:31;13.71;74.66
12907;DHT22;6521;50.498;8.474;2023-06-01T00:56:02;13.74;74.62
12907;DHT22;6521;50.498;8.474;2023-06-01T00:58:32;13.72;74.74
12907;DHT22;6521;50.498;8.474;2023-06-01T01:01:03;13.71;74.68
12907;DHT22;6521;50.498;8.474;2023-06-01T01:03:34;13.67;74.95
12907;DHT22;6521;50.498;8.474;2023-06-01T01:06:16;13.67;75.18
12907;DHT22;6521;50.498;8.474;2023-06-01T01:09:13;13.67;75.24
12907;DHT22;6521;50.498;8.474;2023-06-01T01:11:52;13.61;75.13
12907;DHT22;6521;50.498;8.474;2023-06-01T01:14:38;13.54;75.31
12907;DHT22;6521;50.498;8.474;2023-06-01T01:17:17;13.48;75.39
12907;DHT22;6521;50.498;8.474;2023-06-01T01:20:06;13.48;75.70
12907;DHT22;6521;50.498;8.474;2023-06-01T01:23:13;13.43;75.94
12907;DHT22;6521;50.498;8.474;2023-06-01T01:28:51;13.34;76.04
12907;DHT22;6521;50.498;8.474;2023-06-01T01:31:24;13.31;75.99
12907;DHT22;6521;50.498;8.474;2023-06-01T01:33:58;13.26;76.19
12907;DHT22;6521;50.498;8.474;2023-06-01T01:36:29;13.20;76.35
12907;DHT22;6521;50.498;8.474;2023-06-01T01:39:00;13.17;76.15
12907;DHT22;6521;50.498;8.474;2023-06-01T01:41:31;13.10;76.18
12907;DHT22;6521;50.498;8.474;2023-06-01T01:44:03;13.12;76.28
12907;DHT22;6521;50.498;8.474;2023-06-01T01:46:51;13.06;76.57
12907;DHT22;6521;50.498;8.474;2023-06-01T01:49:28;13.02;76.60
12907;DHT22;6521;50.498;8.474;2023-06-01T01:54:36;12.99;76.60
12907;DHT22;6521;50.498;8.474;2023-06-01T01:57:08;12.99;76.51
12907;DHT22;6521;50.498;8.474;2023-06-01T01:59:40;12.95;76.53
12907;DHT22;6521;50.498;8.474;2023-06-01T02:02:12;12.91;76.72
12907;DHT22;6521;50.498;8.474;2023-06-01T02:04:44;12.88;76.72
12907;DHT22;6521;50.498;8.474;2023-06-01T02:07:17;12.82;76.67
12907;DHT22;6521;50.498;8.474;2023-06-01T02:09:48;12.76;76.71
12907;DHT22;6521;50.498;8.474;2023-06-01T02:12:19;12.76;76.82
12907;DHT22;6521;50.498;8.474;2023-06-01T02:14:50;12.75;76.79
12907;DHT22;6521;50.498;8.474;2023-06-01T02:17:22;12.72;76.82
12907;DHT22;6521;50.498;8.474;2023-06-01T02:19:56;12.72;76.93
12907;DHT22;6521;50.498;8.474;2023-06-01T02:22:26;12.71;76.93
12907;DHT22;6521;50.498;8.474;2023-06-01T02:24:57;12.68;77.07
12907;DHT22;6521;50.498;8.474;2023-06-01T02:27:28;12.66;77.14
12907;DHT22;6521;50.498;8.474;2023-06-01T02:29:58;12.65;77.30
12907;DHT22;6521;50.498;8.474;2023-06-01T02:32:30;12.61;77.45
12907;DHT22;6521;50.498;8.474;2023-06-01T02:35:01;12.61;77.44
12907;DHT22;6521;50.498;8.474;2023-06-01T02:37:32;12.58;77.39
12907;DHT22;6521;50.498;8.474;2023-06-01T02:40:03;12.59;77.41
12907;DHT22;6521;50.498;8.474;2023-06-01T02:42:34;12.58;77.53
12907;DHT22;6521;50.498;8.474;2023-06-01T02:45:06;12.59;77.66
12907;DHT22;6521;50.498;8.474;2023-06-01T02:47:38;12.55;77.51
12907;DHT22;6521;50.498;8.474;2023-06-01T02:50:09;12.54;77.35
12907;DHT22;6521;50.498;8.474;2023-06-01T02:52:44;12.44;77.53
12907;DHT22;6521;50.498;8.474;2023-06-01T02:55:15;12.44;77.50
12907;DHT22;6521;50.498;8.474;2023-06-01T02:58:15;12.40;77.72
12907;DHT22;6521;50.498;8.474;2023-06-01T03:00:59;12.34;77.81
12907;DHT22;6521;50.498;8.474;2023-06-01T03:03:31;12.33;78.03
12907;DHT22;6521;50.498;8.474;2023-06-01T03:06:02;12.30;78.01
12907;DHT22;6521;50.498;8.474;2023-06-01T03:09:05;12.25;78.05
12907;DHT22;6521;50.498;8.474;2023-06-01T03:12:03;12.24;77.96
12907;DHT22;6521;50.498;8.474;2023-06-01T03:14:35;12.20;78.01
12907;DHT22;6521;50.498;8.474;2023-06-01T03:17:06;12.18;78.11
12907;DHT22;6521;50.498;8.474;2023-06-01T03:19:37;12.14;78.35
12907;DHT22;6521;50.498;8.474;2023-06-01T03:22:18;12.13;78.39
12907;DHT22;6521;50.498;8.474;2023-06-01T03:24:48;12.12;78.52
12907;DHT22;6521;50.498;8.474;2023-06-01T03:27:22;12.12;78.60
12907;DHT22;6521;50.498;8.474;2023-06-01T03:29:52;12.10;78.68
12907;DHT22;6521;50.498;8.474;2023-06-01T03:32:23;12.10;79.05
12907;DHT22;6521;50.498;8.474;2023-06-01T03:34:56;12.10;78.97
12907;DHT22;6521;50.498;8.474;2023-06-01T03:37:27;12.12;78.91
12907;DHT22;6521;50.498;8.474;2023-06-01T03:39:57;12.10;79.00
12907;DHT22;6521;50.498;8.474;2023-06-01T03:42:33;12.12;78.98
12907;DHT22;6521;50.498;8.474;2023-06-01T03:45:05;12.12;78.95
12907;DHT22;6521;50.498;8.474;2023-06-01T03:47:36;12.12;78.93
12907;DHT22;6521;50.498;8.474;2023-06-01T03:50:08;12.13;78.97
12907;DHT22;6521;50.498;8.474;2023-06-01T03:52:39;12.10;79.16
12907;DHT22;6521;50.498;8.474;2023-06-01T03:55:10;12.12;79.16
12907;DHT22;6521;50.498;8.474;2023-06-01T03:58:05;12.13;79.24
12907;DHT22;6521;50.498;8.474;2023-06-01T04:00:37;12.10;79.27
12907;DHT22;6521;50.498;8.474;2023-06-01T04:03:09;12.08;79.39
12907;DHT22;6521;50.498;8.474;2023-06-01T04:05:40;12.21;79.31
12907;DHT22;6521;50.498;8.474;2023-06-01T04:08:12;12.27;79.17
12907;DHT22;6521;50.498;8.474;2023-06-01T04:10:42;12.35;79.04
12907;DHT22;6521;50.498;8.474;2023-06-01T04:13:14;12.38;78.92
12907;DHT22;6521;50.498;8.474;2023-06-01T04:15:46;12.48;78.75
12907;DHT22;6521;50.498;8.474;2023-06-01T04:18:19;12.56;78.67
12907;DHT22;6521;50.498;8.474;2023-06-01T04:21:10;12.73;78.37
12907;DHT22;6521;50.498;8.474;2023-06-01T04:23:41;12.95;77.95
12907;DHT22;6521;50.498;8.474;2023-06-01T04:26:14;13.27;77.02
12907;DHT22;6521;50.498;8.474;2023-06-01T04:28:47;13.46;75.57
12907;DHT22;6521;50.498;8.474;2023-06-01T04:31:20;13.37;75.62
12907;DHT22;6521;50.498;8.474;2023-06-01T04:33:52;13.22;75.91
12907;DHT22;6521;50.498;8.474;2023-06-01T04:36:24;13.12;76.58
12907;DHT22;6521;50.498;8.474;2023-06-01T04:39:02;13.10;76.76
12907;DHT22;6521;50.498;8.474;2023-06-01T04:41:35;13.09;76.78
12907;DHT22;6521;50.498;8.474;2023-06-01T04:44:06;13.07;77.07
12907;DHT22;6521;50.498;8.474;2023-06-01T04:46:37;13.10;77.19
12907;DHT22;6521;50.498;8.474;2023-06-01T04:49:09;13.12;77.26
12907;DHT22;6521;50.498;8.474;2023-06-01T04:51:42;13.16;77.42
12907;DHT22;6521;50.498;8.474;2023-06-01T04:54:13;13.22;77.26
12907;DHT22;6521;50.498;8.474;2023-06-01T04:56:44;13.26;77.41
12907;DHT22;6521;50.498;8.474;2023-06-01T04:59:14;13.30;77.36
12907;DHT22;6521;50.498;8.474;2023-06-01T05:01:45;13.36;77.29
12907;DHT22;6521;50.498;8.474;2023-06-01T05:04:16;13.40;77.09
12907;DHT22;6521;50.498;8.474;2023-06-01T05:06:47;13.51;76.65
12907;DHT22;6521;50.498;8.474;2023-06-01T05:09:18;13.54;76.61
12907;DHT22;6521;50.498;8.474;2023-06-01T05:11:48;13.57;76.44
12907;DHT22;6521;50.498;8.474;2023-06-01T05:14:20;13.65;76.34
12907;DHT22;6521;50.498;8.474;2023-06-01T05:16:51;13.65;76.30
12907;DHT22;6521;50.498;8.474;2023-06-01T05:19:22;13.70;76.39
12907;DHT22;6521;50.498;8.474;2023-06-01T05:21:54;13.75;76.19
12907;DHT22;6521;50.498;8.474;2023-06-01T05:24:24;13.82;76.33
12907;DHT22;6521;50.498;8.474;2023-06-01T05:26:55;13.89;76.35
12907;DHT22;6521;50.498;8.474;2023-06-01T05:29:26;13.92;75.88
12907;DHT22;6521;50.498;8.474;2023-06-01T05:31:57;13.98;75.58
12907;DHT22;6521;50.498;8.474;2023-06-01T05:34:28;14.01;75.65
12907;DHT22;6521;50.498;8.474;2023-06-01T05:36:58;14.09;75.74
12907;DHT22;6521;50.498;8.474;2023-06-01T05:39:30;14.13;75.61
12907;DHT22;6521;50.498;8.474;2023-06-01T05:42:01;14.19;75.62
12907;DHT22;6521;50.498;8.474;2023-06-01T05:44:38;14.20;75.43
12907;DHT22;6521;50.498;8.474;2023-06-01T05:47:09;14.29;75.69
12907;DHT22;6521;50.498;8.474;2023-06-01T05:49:41;14.33;75.53
12907;DHT22;6521;50.498;8.474;2023-06-01T05:52:12;14.39;75.78
12907;DHT22;6521;50.498;8.474;2023-06-01T05:54:44;14.47;75.46
12907;DHT22;6521;50.498;8.474;2023-06-01T05:57:15;14.55;75.61
12907;DHT22;6521;50.498;8.474;2023-06-01T05:59:46;14.59;75.45
12907;DHT22;6521;50.498;8.474;2023-06-01T06:02:17;14.70;75.81
12907;DHT22;6521;50.498;8.474;2023-06-01T06:04:48;14.74;75.84
12907;DHT22;6521;50.498;8.474;2023-06-01T06:07:19;14.77;75.74
12907;DHT22;6521;50.498;8.474;2023-06-01T06:09:49;14.85;75.48
12907;DHT22;6521;50.498;8.474;2023-06-01T06:12:20;14.94;75.88
12907;DHT22;6521;50.498;8.474;2023-06-01T06:14:51;15.04;75.83
12907;DHT22;6521;50.498;8.474;2023-06-01T06:17:21;15.14;75.30
12907;DHT22;6521;50.498;8.474;2023-06-01T06:19:52;15.21;75.41
12907;DHT22;6521;50.498;8.474;2023-06-01T06:22:23;15.31;75.08
12907;DHT22;6521;50.498;8.474;2023-06-01T06:24:53;15.38;75.12
12907;DHT22;6521;50.498;8.474;2023-06-01T06:27:24;15.46;75.26
12907;DHT22;6521;50.498;8.474;2023-06-01T06:29:55;15.50;74.09
12907;DHT22;6521;50.498;8.474;2023-06-01T06:32:26;15.59;74.35
12907;DHT22;6521;50.498;8.474;2023-06-01T06:34:56;15.65;73.62
12907;DHT22;6521;50.498;8.474;2023-06-01T06:37:30;15.74;74.05
12907;DHT22;6521;50.498;8.474;2023-06-01T06:40:01;15.82;72.50
12907;DHT22;6521;50.498;8.474;2023-06-01T06:42:32;15.89;72.76
12907;DHT22;6521;50.498;8.474;2023-06-01T06:45:02;15.97;72.30
12907;DHT22;6521;50.498;8.474;2023-06-01T06:47:36;16.08;72.48
12907;DHT22;6521;50.498;8.474;2023-06-01T06:50:07;16.17;72.56
12907;DHT22;6521;50.498;8.474;2023-06-01T06:52:38;16.29;71.71
12907;DHT22;6521;50.498;8.474;2023-06-01T06:55:09;16.41;70.97
12907;DHT22;6521;50.498;8.474;2023-06-01T06:57:40;16.49;70.28
12907;DHT22;6521;50.498;8.474;2023-06-01T07:00:11;16.61;71.34
12907;DHT22;6521;50.498;8.474;2023-06-01T07:02:45;16.72;70.39
12907;DHT22;6521;50.498;8.474;2023-06-01T07:05:15;16.82;69.60
12907;DHT22;6521;50.498;8.474;2023-06-01T07:07:46;16.87;68.78
12907;DHT22;6521;50.498;8.474;2023-06-01T07:10:17;16.96;69.46
12907;DHT22;6521;50.498;8.474;2023-06-01T07:12:48;17.07;69.34
12907;DHT22;6521;50.498;8.474;2023-06-01T07:15:19;17.16;68.52
12907;DHT22;6521;50.498;8.474;2023-06-01T07:17:49;17.24;68.75
12907;DHT22;6521;50.498;8.474;2023-06-01T07:20:21;17.35;67.97
12907;DHT22;6521;50.498;8.474;2023-06-01T07:22:51;17.47;68.04
12907;DHT22;6521;50.498;8.474;2023-06-01T07:25:22;17.58;67.21
12907;DHT22;6521;50.498;8.474;2023-06-01T07:27:53;17.67;66.79
12907;DHT22;6521;50.498;8.474;2023-06-01T07:30:26;17.74;67.50
12907;DHT22;6521;50.498;8.474;2023-06-01T07:32:57;17.86;67.07
12907;DHT22;6521;50.498;8.474;2023-06-01T07:35:29;17.91;65.93
12907;DHT22;6521;50.498;8.474;2023-06-01T07:37:59;18.02;66.23
12907;DHT22;6521;50.498;8.474;2023-06-01T07:40:30;18.14;65.83
12907;DHT22;6521;50.498;8.474;2023-06-01T07:43:01;18.30;65.58
12907;DHT22;6521;50.498;8.474;2023-06-01T07:45:32;18.42;65.53
12907;DHT22;6521;50.498;8.474;2023-06-01T07:48:03;18.51;65.14
12907;DHT22;6521;50.498;8.474;2023-06-01T07:50:34;18.60;63.25
12907;DHT22;6521;50.498;8.474;2023-06-01T07:53:04;18.65;62.65
12907;DHT22;6521;50.498;8.474;2023-06-01T07:55:35;18.80;64.33
12907;DHT22;6521;50.498;8.474;2023-06-01T07:58:06;18.95;63.18
12907;DHT22;6521;50.498;8.474;2023-06-01T08:00:37;19.04;63.43
12907;DHT22;6521;50.498;8.474;2023-06-01T08:03:08;19.18;62.81
12907;DHT22;6521;50.498;8.474;2023-06-01T08:05:40;19.25;63.19
12907;DHT22;6521;50.498;8.474;2023-06-01T08:08:11;19.38;63.24
12907;DHT22;6521;50.498;8.474;2023-06-01T08:10:42;19.46;61.76
12907;DHT22;6521;50.498;8.474;2023-06-01T08:13:13;19.50;62.45
12907;DHT22;6521;50.498;8.474;2023-06-01T08:15:44;19.65;62.54
12907;DHT22;6521;50.498;8.474;2023-06-01T08:18:18;19.81;61.71
12907;DHT22;6521;50.498;8.474;2023-06-01T08:20:50;20.00;61.00
12907;DHT22;6521;50.498;8.474;2023-06-01T08:23:21;20.16;60.27
12907;DHT22;6521;50.498;8.474;2023-06-01T08:25:53;20.25;59.92
12907;DHT22;6521;50.498;8.474;2023-06-01T08:28:23;20.29;59.16
12907;DHT22;6521;50.498;8.474;2023-06-01T08:30:54;20.55;60.31
12907;DHT22;6521;50.498;8.474;2023-06-01T08:33:25;20.71;57.58
12907;DHT22;6521;50.498;8.474;2023-06-01T08:35:56;20.86;57.32
12907;DHT22;6521;50.498;8.474;2023-06-01T08:38:27;20.96;56.26
12907;DHT22;6521;50.498;8.474;2023-06-01T08:43:52;21.31;56.33
12907;DHT22;6521;50.498;8.474;2023-06-01T08:46:25;21.47;54.45
12907;DHT22;6521;50.498;8.474;2023-06-01T08:48:58;21.64;55.69
12907;DHT22;6521;50.498;8.474;2023-06-01T08:51:32;21.77;52.90
12907;DHT22;6521;50.498;8.474;2023-06-01T08:54:05;21.88;54.48
12907;DHT22;6521;50.498;8.474;2023-06-01T08:56:37;22.06;54.00
12907;DHT22;6521;50.498;8.474;2023-06-01T08:59:12;22.19;52.28
12907;DHT22;6521;50.498;8.474;2023-06-01T09:01:47;22.32;52.65
12907;DHT22;6521;50.498;8.474;2023-06-01T09:04:17;22.56;51.89
12907;DHT22;6521;50.498;8.474;2023-06-01T09:06:48;22.74;52.05
12907;DHT22;6521;50.498;8.474;2023-06-01T09:09:19;23.01;51.02
12907;DHT22;6521;50.498;8.474;2023-06-01T09:15:15;23.49;49.72
12907;DHT22;6521;50.498;8.474;2023-06-01T09:17:51;23.65;50.11
12907;DHT22;6521;50.498;8.474;2023-06-01T09:22:55;24.03;48.89
12907;DHT22;6521;50.498;8.474;2023-06-01T09:25:30;24.38;47.64
12907;DHT22;6521;50.498;8.474;2023-06-01T09:28:02;24.64;45.93
12907;DHT22;6521;50.498;8.474;2023-06-01T09:30:43;24.95;46.45
12907;DHT22;6521;50.498;8.474;2023-06-01T09:33:16;25.24;45.63
12907;DHT22;6521;50.498;8.474;2023-06-01T09:35:49;25.61;44.91
12907;DHT22;6521;50.498;8.474;2023-06-01T09:38:22;26.01;41.91
12907;DHT22;6521;50.498;8.474;2023-06-01T09:41:01;26.12;42.56
12907;DHT22;6521;50.498;8.474;2023-06-01T09:43:34;26.26;41.47
12907;DHT22;6521;50.498;8.474;2023-06-01T09:46:09;26.64;40.68
12907;DHT22;6521;50.498;8.474;2023-06-01T09:48:40;27.12;39.59
12907;DHT22;6521;50.498;8.474;2023-06-01T09:51:23;27.29;38.22
12907;DHT22;6521;50.498;8.474;2023-06-01T09:54:00;27.39;40.02
12907;DHT22;6521;50.498;8.474;2023-06-01T09:56:44;27.37;40.01
12907;DHT22;6521;50.498;8.474;2023-06-01T09:59:15;27.70;38.70
12907;DHT22;6521;50.498;8.474;2023-06-01T10:01:50;28.17;39.40
12907;DHT22;6521;50.498;8.474;2023-06-01T10:04:23;28.20;37.37
12907;DHT22;6521;50.498;8.474;2023-06-01T10:06:55;28.33;37.24
12907;DHT22;6521;50.498;8.474;2023-06-01T10:09:27;28.41;36.79
12907;DHT22;6521;50.498;8.474;2023-06-01T10:11:58;28.22;37.16
12907;DHT22;6521;50.498;8.474;2023-06-01T10:14:29;28.17;36.75
12907;DHT22;6521;50.498;8.474;2023-06-01T10:17:01;28.52;37.83
12907;DHT22;6521;50.498;8.474;2023-06-01T10:19:32;29.02;35.16
12907;DHT22;6521;50.498;8.474;2023-06-01T10:22:06;29.17;37.18
12907;DHT22;6521;50.498;8.474;2023-06-01T10:24:38;29.57;36.23
12907;DHT22;6521;50.498;8.474;2023-06-01T10:27:18;29.47;36.52
12907;DHT22;6521;50.498;8.474;2023-06-01T10:29:52;29.75;36.56
12907;DHT22;6521;50.498;8.474;2023-06-01T10:38:32;29.61;35.27
12907;DHT22;6521;50.498;8.474;2023-06-01T10:41:24;29.70;35.50
12907;DHT22;6521;50.498;8.474;2023-06-01T10:43:56;30.05;33.95
12907;DHT22;6521;50.498;8.474;2023-06-01T10:46:35;29.82;33.83
12907;DHT22;6521;50.498;8.474;2023-06-01T10:49:06;29.85;34.52
12907;DHT22;6521;50.498;8.474;2023-06-01T10:51:37;29.92;34.68
12907;DHT22;6521;50.498;8.474;2023-06-01T10:54:25;29.84;35.53
12907;DHT22;6521;50.498;8.474;2023-06-01T11:02:57;30.39;32.64
12907;DHT22;6521;50.498;8.474;2023-06-01T11:13:33;31.29;31.50
12907;DHT22;6521;50.498;8.474;2023-06-01T11:18:53;31.89;31.72
12907;DHT22;6521;50.498;8.474;2023-06-01T11:24:12;32.33;29.65
12907;DHT22;6521;50.498;8.474;2023-06-01T11:26:48;32.12;29.73
12907;DHT22;6521;50.498;8.474;2023-06-01T11:29:23;31.83;30.51
12907;DHT22;6521;50.498;8.474;2023-06-01T11:31:59;32.17;30.21
12907;DHT22;6521;50.498;8.474;2023-06-01T11:34:39;32.21;28.66
12907;DHT22;6521;50.498;8.474;2023-06-01T11:37:13;32.51;26.98
12907;DHT22;6521;50.498;8.474;2023-06-01T11:39:44;32.64;26.39
12907;DHT22;6521;50.498;8.474;2023-06-01T11:42:19;32.45;27.11
12907;DHT22;6521;50.498;8.474;2023-06-01T11:44:57;32.64;25.99
12907;DHT22;6521;50.498;8.474;2023-06-01T11:47:29;32.38;27.62
12907;DHT22;6521;50.498;8.474;2023-06-01T11:50:01;32.16;26.70
12907;DHT22;6521;50.498;8.474;2023-06-01T11:52:31;31.97;26.13
12907;DHT22;6521;50.498;8.474;2023-06-01T11:55:03;31.89;29.09
12907;DHT22;6521;50.498;8.474;2023-06-01T11:57:34;32.09;26.27
12907;DHT22;6521;50.498;8.474;2023-06-01T12:00:10;32.20;27.07
12907;DHT22;6521;50.498;8.474;2023-06-01T12:02:43;32.38;25.92
12907;DHT22;6521;50.498;8.474;2023-06-01T12:05:14;32.03;27.51
12907;DHT22;6521;50.498;8.474;2023-06-01T12:07:51;32.10;26.73
12907;DHT22;6521;50.498;8.474;2023-06-01T12:10:23;32.38;26.17
12907;DHT22;6521;50.498;8.474;2023-06-01T12:12:54;32.50;25.41
12907;DHT22;6521;50.498;8.474;2023-06-01T12:15:25;32.50;25.75
12907;DHT22;6521;50.498;8.474;2023-06-01T12:17:56;32.67;27.42
12907;DHT22;6521;50.498;8.474;2023-06-01T12:23:15;32.61;27.05
12907;DHT22;6521;50.498;8.474;2023-06-01T12:25:56;32.70;26.63
12907;DHT22;6521;50.498;8.474;2023-06-01T12:28:50;32.82;27.31
12907;DHT22;6521;50.498;8.474;2023-06-01T12:31:23;32.74;27.48
12907;DHT22;6521;50.498;8.474;2023-06-01T12:33:54;32.88;26.23
12907;DHT22;6521;50.498;8.474;2023-06-01T12:36:35;33.02;26.18
12907;DHT22;6521;50.498;8.474;2023-06-01T12:39:06;32.65;27.78
12907;DHT22;6521;50.498;8.474;2023-06-01T12:41:46;32.68;26.58
12907;DHT22;6521;50.498;8.474;2023-06-01T12:44:18;32.76;25.79
12907;DHT22;6521;50.498;8.474;2023-06-01T12:46:56;33.02;25.83
12907;DHT22;6521;50.498;8.474;2023-06-01T12:49:28;33.21;26.22
12907;DHT22;6521;50.498;8.474;2023-06-01T12:51:59;33.25;26.73
12907;DHT22;6521;50.498;8.474;2023-06-01T12:54:29;33.27;26.45
12907;DHT22;6521;50.498;8.474;2023-06-01T12:57:00;33.15;26.58
12907;DHT22;6521;50.498;8.474;2023-06-01T12:59:32;32.84;26.73
12907;DHT22;6521;50.498;8.474;2023-06-01T13:02:03;33.26;25.77
12907;DHT22;6521;50.498;8.474;2023-06-01T13:04:34;33.23;24.81
12907;DHT22;6521;50.498;8.474;2023-06-01T13:07:05;33.22;26.18
12907;DHT22;6521;50.498;8.474;2023-06-01T13:09:36;33.01;26.10
12907;DHT22;6521;50.498;8.474;2023-06-01T13:12:08;33.08;26.36
12907;DHT22;6521;50.498;8.474;2023-06-01T13:14:39;33.23;26.60
12907;DHT22;6521;50.498;8.474;2023-06-01T13:17:10;33.36;24.95
12907;DHT22;6521;50.498;8.474;2023-06-01T13:19:41;33.25;25.55
12907;DHT22;6521;50.498;8.474;2023-06-01T13:22:11;33.26;25.05
12907;DHT22;6521;50.498;8.474;2023-06-01T13:24:42;33.46;25.37
12907;DHT22;6521;50.498;8.474;2023-06-01T13:27:13;33.73;26.14
12907;DHT22;6521;50.498;8.474;2023-06-01T13:29:44;33.70;24.78
12907;DHT22;6521;50.498;8.474;2023-06-01T13:32:15;33.32;25.85
12907;DHT22;6521;50.498;8.474;2023-06-01T13:34:46;32.95;24.76
12907;DHT22;6521;50.498;8.474;2023-06-01T13:37:17;33.08;25.43
12907;DHT22;6521;50.498;8.474;2023-06-01T13:39:48;33.13;27.22
12907;DHT22;6521;50.498;8.474;2023-06-01T13:42:19;33.04;25.44
12907;DHT22;6521;50.498;8.474;2023-06-01T13:44:50;33.22;25.45
12907;DHT22;6521;50.498;8.474;2023-06-01T13:47:20;33.25;26.11
12907;DHT22;6521;50.498;8.474;2023-06-01T13:49:51;33.63;23.24
12907;DHT22;6521;50.498;8.474;2023-06-01T13:52:23;33.42;22.18
12907;DHT22;6521;50.498;8.474;2023-06-01T13:54:56;33.70;22.39
12907;DHT22;6521;50.498;8.474;2023-06-01T13:57:27;33.49;23.23
12907;DHT22;6521;50.498;8.474;2023-06-01T13:59:59;33.19;22.74
12907;DHT22;6521;50.498;8.474;2023-06-01T14:02:30;33.42;22.50
12907;DHT22;6521;50.498;8.474;2023-06-01T14:05:00;33.59;22.03
12907;DHT22;6521;50.498;8.474;2023-06-01T14:07:31;33.47;22.51
12907;DHT22;6521;50.498;8.474;2023-06-01T14:10:02;33.34;22.08
12907;DHT22;6521;50.498;8.474;2023-06-01T14:12:33;33.33;21.10
12907;DHT22;6521;50.498;8.474;2023-06-01T14:15:04;33.29;19.43
12907;DHT22;6521;50.498;8.474;2023-06-01T14:17:35;32.86;21.09
12907;DHT22;6521;50.498;8.474;2023-06-01T14:20:06;32.54;21.64
12907;DHT22;6521;50.498;8.474;2023-06-01T14:22:37;32.02;22.61
12907;DHT22;6521;50.498;8.474;2023-06-01T14:25:08;31.82;22.94
12907;DHT22;6521;50.498;8.474;2023-06-01T14:27:39;31.52;22.51
12907;DHT22;6521;50.498;8.474;2023-06-01T14:30:10;31.11;23.51
12907;DHT22;6521;50.498;8.474;2023-06-01T14:32:41;30.76;24.04
12907;DHT22;6521;50.498;8.474;2023-06-01T14:35:13;30.53;24.71
12907;DHT22;6521;50.498;8.474;2023-06-01T14:37:46;30.35;25.97
12907;DHT22;6521;50.498;8.474;2023-06-01T14:40:17;30.42;24.66
12907;DHT22;6521;50.498;8.474;2023-06-01T14:42:47;30.50;24.36
12907;DHT22;6521;50.498;8.474;2023-06-01T14:45:18;30.32;22.97
12907;DHT22;6521;50.498;8.474;2023-06-01T14:47:52;29.97;23.75
12907;DHT22;6521;50.498;8.474;2023-06-01T14:50:22;29.94;23.04
12907;DHT22;6521;50.498;8.474;2023-06-01T14:52:53;30.09;25.25
12907;DHT22;6521;50.498;8.474;2023-06-01T14:55:29;30.31;25.60
12907;DHT22;6521;50.498;8.474;2023-06-01T14:58:00;30.47;24.56
12907;DHT22;6521;50.498;8.474;2023-06-01T15:00:32;30.33;24.02
12907;DHT22;6521;50.498;8.474;2023-06-01T15:03:03;30.26;24.00
12907;DHT22;6521;50.498;8.474;2023-06-01T15:05:34;29.89;25.00
12907;DHT22;6521;50.498;8.474;2023-06-01T15:08:06;29.89;23.92
12907;DHT22;6521;50.498;8.474;2023-06-01T15:10:37;29.97;24.88
12907;DHT22;6521;50.498;8.474;2023-06-01T15:13:08;29.98;24.33
12907;DHT22;6521;50.498;8.474;2023-06-01T15:15:39;29.86;24.51
12907;DHT22;6521;50.498;8.474;2023-06-01T15:18:11;29.75;29.33
12907;DHT22;6521;50.498;8.474;2023-06-01T15:20:42;29.53;30.83
12907;DHT22;6521;50.498;8.474;2023-06-01T15:23:13;29.17;31.25
12907;DHT22;6521;50.498;8.474;2023-06-01T15:25:45;28.89;30.47
12907;DHT22;6521;50.498;8.474;2023-06-01T15:28:16;28.79;31.26
12907;DHT22;6521;50.498;8.474;2023-06-01T15:30:46;28.85;31.87
12907;DHT22;6521;50.498;8.474;2023-06-01T15:33:17;28.83;33.12
12907;DHT22;6521;50.498;8.474;2023-06-01T15:35:48;28.44;31.33
12907;DHT22;6521;50.498;8.474;2023-06-01T15:38:19;28.03;33.05
12907;DHT22;6521;50.498;8.474;2023-06-01T15:40:50;27.74;33.74
12907;DHT22;6521;50.498;8.474;2023-06-01T15:43:21;27.56;31.83
12907;DHT22;6521;50.498;8.474;2023-06-01T15:45:51;27.65;31.69
12907;DHT22;6521;50.498;8.474;2023-06-01T15:48:22;27.67;31.74
12907;DHT22;6521;50.498;8.474;2023-06-01T15:50:53;27.59;31.86
12907;DHT22;6521;50.498;8.474;2023-06-01T15:53:23;27.73;33.04
12907;DHT22;6521;50.498;8.474;2023-06-01T15:55:54;27.85;31.16
12907;DHT22;6521;50.498;8.474;2023-06-01T15:58:25;27.99;32.04
12907;DHT22;6521;50.498;8.474;2023-06-01T16:00:56;28.13;31.32
12907;DHT22;6521;50.498;8.474;2023-06-01T16:03:26;28.20;31.43
12907;DHT22;6521;50.498;8.474;2023-06-01T16:05:57;28.08;30.58
12907;DHT22;6521;50.498;8.474;2023-06-01T16:08:28;28.07;30.39
12907;DHT22;6521;50.498;8.474;2023-06-01T16:10:59;28.17;31.23
12907;DHT22;6521;50.498;8.474;2023-06-01T16:13:29;28.14;30.74
12907;DHT22;6521;50.498;8.474;2023-06-01T16:16:01;28.03;31.69
12907;DHT22;6521;50.498;8.474;2023-06-01T16:18:31;27.77;31.91
12907;DHT22;6521;50.498;8.474;2023-06-01T16:21:02;27.39;32.63
12907;DHT22;6521;50.498;8.474;2023-06-01T16:23:33;27.15;32.88
12907;DHT22;6521;50.498;8.474;2023-06-01T16:26:04;26.83;32.93
12907;DHT22;6521;50.498;8.474;2023-06-01T16:28:35;26.71;32.74
12907;DHT22;6521;50.498;8.474;2023-06-01T16:31:06;26.40;33.42
12907;DHT22;6521;50.498;8.474;2023-06-01T16:33:36;26.29;34.16
12907;DHT22;6521;50.498;8.474;2023-06-01T16:36:07;26.22;33.92
12907;DHT22;6521;50.498;8.474;2023-06-01T16:38:38;25.98;34.17
12907;DHT22;6521;50.498;8.474;2023-06-01T16:41:09;25.96;33.71
12907;DHT22;6521;50.498;8.474;2023-06-01T16:43:39;25.91;33.97
12907;DHT22;6521;50.498;8.474;2023-06-01T16:46:10;25.92;34.12
12907;DHT22;6521;50.498;8.474;2023-06-01T16:48:41;26.06;33.61
12907;DHT22;6521;50.498;8.474;2023-06-01T16:51:11;25.92;30.68
12907;DHT22;6521;50.498;8.474;2023-06-01T16:53:42;25.58;29.72
12907;DHT22;6521;50.498;8.474;2023-06-01T16:56:14;25.38;29.82
12907;DHT22;6521;50.498;8.474;2023-06-01T16:58:45;25.20;31.85
12907;DHT22;6521;50.498;8.474;2023-06-01T17:01:15;24.99;31.98